Time;durP1;ratioP1;P1;durP2;ratioP2;P2;SDS_P1;SDS_P2;PMS_P1;PMS_P2;Temp;Humidity;BMP_temperature;BMP_pressure;BME280_temperature;BME280_humidity;BME280_pressure;Samples;Min_cycle;Max_cycle;Signal;HPM_P1;HPM_P2
2022/10/14 00:00:17;;;;;;;1.73;0.80;;;11.50;99.90;;;;;;6248902;22;20141;-86
2022/10/14 00:02:42;;;;;;;2.03;0.80;;;11.50;99.90;;;;;;6224175;22;20470;-86
2022/10/14 00:05:09;;;;;;;1.47;0.80;;;11.50;99.90;;;;;;6223442;22;20020;-86
2022/10/14 00:07:35;;;;;;;2.03;0.65;;;11.50;99.90;;;;;;6249658;22;20086;-86
2022/10/14 00:10:02;;;;;;;0.93;0.73;;;11.50;99.90;;;;;;6276155;22;20023;-86
2022/10/14 00:12:28;;;;;;;0.82;0.65;;;11.40;99.90;;;;;;6224171;22;20497;-86
2022/10/14 00:14:55;;;;;;;1.25;0.93;;;11.60;99.90;;;;;;6249425;22;20019;-86
2022/10/14 00:17:21;;;;;;;0.68;0.68;;;11.40;99.90;;;;;;6223769;22;20109;-86
2022/10/14 00:19:47;;;;;;;1.42;0.47;;;11.40;99.90;;;;;;6249185;22;20011;-86
2022/10/14 00:22:13;;;;;;;0.87;0.50;;;11.40;99.90;;;;;;6223730;22;20348;-86
2022/10/14 00:24:39;;;;;;;2.17;0.40;;;11.30;99.90;;;;;;6249392;22;20106;-86
2022/10/14 00:27:05;;;;;;;1.25;0.40;;;11.30;99.90;;;;;;6248605;22;20012;-87
2022/10/14 00:29:31;;;;;;;3.03;0.73;;;11.30;99.90;;;;;;6249200;22;20016;-86
2022/10/14 00:31:57;;;;;;;2.85;1.10;;;11.20;99.90;;;;;;6249096;22;20069;-86
2022/10/14 00:34:22;;;;;;;2.23;0.90;;;11.20;99.90;;;;;;6248404;22;20024;-86
2022/10/14 00:36:48;;;;;;;2.77;1.10;;;11.20;99.90;;;;;;6248929;22;20023;-86
2022/10/14 00:39:14;;;;;;;1.43;0.73;;;11.20;99.90;;;;;;6248871;22;20085;-86
2022/10/14 00:41:40;;;;;;;0.93;0.60;;;11.20;99.90;;;;;;6248859;22;20018;-86
2022/10/14 00:44:11;;;;;;;1.85;0.57;;;11.20;99.90;;;;;;6248650;22;20351;-86
2022/10/14 00:46:39;;;;;;;0.47;0.47;;;11.20;99.90;;;;;;6223991;22;20015;-86
2022/10/14 00:49:13;;;;;;;1.30;0.80;;;11.20;99.90;;;;;;6223418;22;20046;-86
2022/10/14 00:51:42;;;;;;;1.73;0.70;;;11.10;99.90;;;;;;6224333;22;20348;-86
2022/10/14 00:54:10;;;;;;;0.90;0.25;;;11.10;99.90;;;;;;6248085;22;20069;-86
2022/10/14 00:56:36;;;;;;;1.88;0.57;;;11.10;99.90;;;;;;6223693;22;20098;-86
2022/10/14 00:59:03;;;;;;;0.77;0.28;;;11.10;99.90;;;;;;6248665;22;20101;-86
2022/10/14 01:01:29;;;;;;;2.47;0.70;;;11.10;99.90;;;;;;6248891;22;20020;-86
2022/10/14 01:03:54;;;;;;;0.87;0.77;;;11.10;99.90;;;;;;6249179;22;20016;-86
2022/10/14 01:06:39;;;;;;;1.07;0.60;;;11.10;99.90;;;;;;6248531;22;20012;-86
2022/10/14 01:09:07;;;;;;;0.80;0.57;;;11.10;99.90;;;;;;6223950;22;20345;-86
2022/10/14 01:12:19;;;;;;;0.47;0.45;;;11.60;99.90;;;;;;6249123;22;20318;-86
2022/10/14 01:14:53;;;;;;;0.63;0.40;;;11.00;99.90;;;;;;6235553;22;20094;-86
2022/10/14 01:17:18;;;;;;;0.57;0.57;;;11.00;99.90;;;;;;6226790;22;20015;-86
2022/10/14 01:20:21;;;;;;;0.30;0.30;;;11.00;99.90;;;;;;6227604;22;20047;-86
2022/10/14 01:23:11;;;;;;;0.40;0.40;;;11.00;99.90;;;;;;6252701;22;20432;-86
2022/10/14 01:25:54;;;;;;;0.20;0.20;;;11.00;99.90;;;;;;6227313;22;20034;-86
2022/10/14 01:28:33;;;;;;;0.68;0.40;;;11.00;99.90;;;;;;6251988;22;20044;-86
2022/10/14 01:31:04;;;;;;;1.55;0.30;;;10.90;99.90;;;;;;6226636;22;20020;-86
2022/10/14 01:33:37;;;;;;;1.25;0.40;;;10.90;99.90;;;;;;6226590;22;20023;-86
2022/10/14 01:36:08;;;;;;;2.25;0.68;;;10.90;99.90;;;;;;6252399;22;20023;-86
2022/10/14 01:39:09;;;;;;;0.60;0.47;;;10.90;99.90;;;;;;6226759;22;20055;-86
2022/10/14 01:41:40;;;;;;;1.20;0.45;;;10.80;99.90;;;;;;6248809;22;20348;-86
2022/10/14 01:44:10;;;;;;;0.13;0.10;;;10.80;99.90;;;;;;6227269;22;20016;-86
2022/10/14 01:46:45;;;;;;;1.70;0.40;;;10.80;99.90;;;;;;6252212;22;20448;-86
2022/10/14 01:49:25;;;;;;;0.52;0.28;;;10.80;99.90;;;;;;6278955;22;20018;-87
2022/10/14 01:51:55;;;;;;;1.15;0.40;;;10.80;99.90;;;;;;6252682;22;20016;-86
2022/10/14 01:54:31;;;;;;;0.43;0.40;;;10.70;99.90;;;;;;6226524;22;20020;-86
2022/10/14 01:57:01;;;;;;;0.52;0.38;;;10.80;99.90;;;;;;6252340;22;20016;-86
2022/10/14 01:59:28;;;;;;;0.10;0.10;;;10.80;99.90;;;;;;6226341;22;20034;-86
2022/10/14 02:01:53;;;;;;;0.75;0.40;;;10.80;99.90;;;;;;6227146;22;20428;-86
2022/10/14 02:04:21;;;;;;;0.20;0.20;;;10.80;99.90;;;;;;6251649;22;20015;-86
2022/10/14 02:07:08;;;;;;;0.47;0.20;;;10.80;99.90;;;;;;6226788;22;20019;-86
2022/10/14 02:09:33;;;;;;;0.43;0.30;;;10.70;99.90;;;;;;6226505;22;20091;-86
2022/10/14 02:12:35;;;;;;;0.93;0.40;;;10.70;99.90;;;;;;6227116;22;20054;-86
2022/10/14 02:15:30;;;;;;;1.08;0.57;;;10.70;99.90;;;;;;6252089;22;20194;-86
2022/10/14 02:18:19;;;;;;;0.63;0.30;;;10.70;99.90;;;;;;6252461;22;20474;-86
2022/10/14 02:21:02;;;;;;;0.13;0.13;;;10.70;99.90;;;;;;6252250;22;20023;-86
2022/10/14 02:23:38;;;;;;;1.63;0.38;;;10.80;99.90;;;;;;6251712;22;20023;-86
2022/10/14 02:26:05;;;;;;;0.40;0.40;;;10.70;99.90;;;;;;6250959;22;20026;-86
2022/10/14 02:28:32;;;;;;;0.75;0.50;;;10.70;99.90;;;;;;6249698;22;20090;-86
2022/10/14 02:31:08;;;;;;;1.55;0.45;;;10.70;99.90;;;;;;6250312;22;20094;-86
2022/10/14 02:33:38;;;;;;;0.68;0.50;;;10.70;99.90;;;;;;6224666;22;20015;-86
2022/10/14 02:36:07;;;;;;;0.28;0.13;;;10.70;99.90;;;;;;6250261;22;20551;-86
2022/10/14 02:38:33;;;;;;;0.30;0.30;;;10.70;99.90;;;;;;6275556;22;20023;-86
2022/10/14 02:41:03;;;;;;;0.38;0.25;;;10.80;99.90;;;;;;6250317;22;20015;-86
2022/10/14 02:43:29;;;;;;;0.82;0.40;;;10.70;99.90;;;;;;6250008;22;20030;-86
2022/10/14 02:46:01;;;;;;;0.77;0.20;;;10.70;99.90;;;;;;6250460;22;20343;-86
2022/10/14 02:48:26;;;;;;;0.90;0.73;;;10.70;99.90;;;;;;6249468;22;20028;-86
2022/10/14 02:50:52;;;;;;;0.37;0.30;;;10.70;99.90;;;;;;6250180;22;20095;-86
2022/10/14 02:53:18;;;;;;;2.10;0.83;;;10.70;99.90;;;;;;6250395;22;20022;-86
2022/10/14 02:55:44;;;;;;;0.65;0.32;;;10.70;99.90;;;;;;6250296;22;20015;-86
2022/10/14 02:58:09;;;;;;;0.80;0.37;;;10.60;99.90;;;;;;6249976;22;20085;-86
2022/10/14 03:00:35;;;;;;;0.03;0.03;;;10.60;99.90;;;;;;6199388;22;20050;-86
2022/10/14 03:03:01;;;;;;;0.70;0.57;;;10.60;99.90;;;;;;6224889;22;20069;-86
2022/10/14 03:05:26;;;;;;;0.17;0.03;;;10.60;99.90;;;;;;6249309;22;20039;-86
2022/10/14 03:07:52;;;;;;;1.23;0.47;;;10.60;99.90;;;;;;6225130;22;20016;-86
2022/10/14 03:10:18;;;;;;;0.20;0.20;;;11.40;99.90;;;;;;6225103;22;20515;-86
2022/10/14 03:12:43;;;;;;;0.30;0.30;;;10.50;99.90;;;;;;6249528;22;20026;-86
2022/10/14 03:15:09;;;;;;;0.27;0.27;;;10.60;99.90;;;;;;6250025;22;20055;-86
2022/10/14 03:17:36;;;;;;;1.02;0.40;;;11.20;99.90;;;;;;6224066;22;20056;-86
2022/10/14 03:20:03;;;;;;;0.82;0.82;;;10.50;99.90;;;;;;6250046;22;20015;-86
2022/10/14 03:22:29;;;;;;;0.10;0.10;;;10.50;99.90;;;;;;6224313;22;20452;-86
2022/10/14 03:24:54;;;;;;;0.60;0.33;;;10.50;99.90;;;;;;6249879;22;20016;-86
2022/10/14 03:27:20;;;;;;;0.40;0.20;;;10.40;99.90;;;;;;6249834;22;20011;-86
2022/10/14 03:29:46;;;;;;;1.50;0.33;;;10.40;99.90;;;;;;6248690;22;20031;-85
2022/10/14 03:32:11;;;;;;;0.00;0.00;;;10.40;99.90;;;;;;6224710;22;20058;-86
2022/10/14 03:34:37;;;;;;;0.50;0.23;;;10.30;99.90;;;;;;6249156;22;20073;-86
2022/10/14 03:37:03;;;;;;;0.33;0.27;;;10.30;99.90;;;;;;6223955;22;20023;-86
2022/10/14 03:39:29;;;;;;;0.63;0.30;;;10.20;99.90;;;;;;6224349;22;20069;-86
2022/10/14 03:41:54;;;;;;;0.10;0.10;;;10.20;99.90;;;;;;6224338;22;20444;-85
2022/10/14 03:44:20;;;;;;;0.70;0.40;;;10.20;99.90;;;;;;6224549;22;20016;-86
2022/10/14 03:46:46;;;;;;;0.13;0.13;;;10.20;99.90;;;;;;6248877;22;20034;-86
2022/10/14 03:49:12;;;;;;;0.20;0.20;;;10.10;99.90;;;;;;6249460;22;20026;-86
2022/10/14 03:51:37;;;;;;;0.77;0.20;;;10.10;99.90;;;;;;6249273;22;20020;-86
2022/10/14 03:54:03;;;;;;;0.30;0.27;;;10.10;99.90;;;;;;6249985;22;20015;-86
2022/10/14 03:56:29;;;;;;;0.93;0.30;;;10.10;99.90;;;;;;6249057;22;20015;-86
2022/10/14 03:58:55;;;;;;;0.10;0.10;;;10.10;99.90;;;;;;6249518;22;20456;-86
2022/10/14 04:01:20;;;;;;;0.20;0.20;;;10.00;99.90;;;;;;6224686;22;20051;-86
2022/10/14 04:03:46;;;;;;;0.83;0.50;;;10.10;99.90;;;;;;6248684;22;20098;-86
2022/10/14 04:06:15;;;;;;;0.20;0.20;;;10.10;99.90;;;;;;6224017;22;20015;-86
2022/10/14 04:08:42;;;;;;;0.10;0.10;;;10.10;99.90;;;;;;6223665;22;20016;-86
2022/10/14 04:11:08;;;;;;;0.52;0.47;;;10.10;99.90;;;;;;6224130;22;20023;-86
2022/10/14 04:13:35;;;;;;;0.68;0.68;;;10.10;99.90;;;;;;6248696;22;20016;-86
2022/10/14 04:16:06;;;;;;;0.20;0.20;;;10.10;99.90;;;;;;6249034;22;20016;-86
2022/10/14 04:18:32;;;;;;;0.00;0.00;;;10.10;99.90;;;;;;6248940;22;20026;-86
2022/10/14 04:21:00;;;;;;;0.85;0.10;;;10.20;99.90;;;;;;6274918;22;20038;-86
2022/10/14 04:23:26;;;;;;;1.17;0.45;;;10.20;99.90;;;;;;6249463;22;20105;-86
2022/10/14 04:25:52;;;;;;;0.40;0.23;;;10.20;99.90;;;;;;6223448;22;20428;-86
2022/10/14 04:28:17;;;;;;;0.40;0.40;;;10.20;99.90;;;;;;6248853;22;20483;-86
2022/10/14 04:30:43;;;;;;;0.73;0.20;;;10.20;99.90;;;;;;6248957;22;20047;-86
2022/10/14 04:33:09;;;;;;;0.40;0.20;;;10.20;99.90;;;;;;6223996;22;20474;-86
2022/10/14 04:35:34;;;;;;;1.10;0.13;;;10.20;99.90;;;;;;6248308;22;20443;-86
2022/10/14 04:38:00;;;;;;;0.57;0.37;;;10.30;99.90;;;;;;6249046;22;20380;-86
2022/10/14 04:40:25;;;;;;;1.40;0.50;;;10.30;99.90;;;;;;6249036;22;20023;-86
2022/10/14 04:42:56;;;;;;;0.37;0.23;;;10.30;99.90;;;;;;6223244;22;20335;-86
2022/10/14 04:45:21;;;;;;;1.10;0.00;;;10.30;99.90;;;;;;6223996;22;20405;-86
2022/10/14 04:47:47;;;;;;;1.33;0.40;;;10.30;99.90;;;;;;6248149;22;20020;-86
2022/10/14 04:50:13;;;;;;;1.40;0.33;;;10.30;99.90;;;;;;6248842;22;20018;-86
2022/10/14 04:52:38;;;;;;;0.30;0.13;;;10.30;99.90;;;;;;6248676;22;20015;-86
2022/10/14 04:55:05;;;;;;;0.33;0.33;;;10.30;99.90;;;;;;6249107;22;20018;-86
2022/10/14 04:57:30;;;;;;;0.70;0.28;;;10.30;99.90;;;;;;6249219;22;20047;-85
2022/10/14 04:59:56;;;;;;;1.03;0.17;;;10.30;99.90;;;;;;6248431;22;20023;-86
2022/10/14 05:02:22;;;;;;;0.10;0.10;;;10.30;99.90;;;;;;6249043;22;20047;-86
2022/10/14 05:04:47;;;;;;;1.80;0.40;;;10.30;99.90;;;;;;6248290;22;20019;-86
2022/10/14 05:07:13;;;;;;;0.60;0.20;;;10.30;99.90;;;;;;6248837;22;20026;-86
2022/10/14 05:09:39;;;;;;;1.83;0.20;;;10.50;99.90;;;;;;6223251;22;20455;-86
2022/10/14 05:12:04;;;;;;;0.43;0.30;;;10.30;99.90;;;;;;6248937;22;20012;-86
2022/10/14 05:14:30;;;;;;;0.30;0.30;;;10.30;99.90;;;;;;6249021;22;20409;-86
2022/10/14 05:16:56;;;;;;;0.30;0.20;;;10.30;99.90;;;;;;6222976;22;20887;-86
2022/10/14 05:19:21;;;;;;;0.30;0.30;;;10.30;99.90;;;;;;6248967;22;20085;-86
2022/10/14 05:21:47;;;;;;;0.30;0.30;;;10.30;99.90;;;;;;6248172;22;20403;-86
2022/10/14 05:24:13;;;;;;;0.80;0.60;;;10.30;99.90;;;;;;6223220;22;20319;-86
2022/10/14 05:26:38;;;;;;;2.27;0.30;;;10.30;99.90;;;;;;6248244;22;20027;-86
2022/10/14 05:29:04;;;;;;;0.17;0.17;;;10.30;99.90;;;;;;6248755;22;20016;-86
2022/10/14 05:31:30;;;;;;;0.37;0.37;;;10.30;99.90;;;;;;6223064;22;20103;-86
2022/10/14 05:33:55;;;;;;;1.40;0.40;;;10.30;99.90;;;;;;6247975;22;20395;-86
2022/10/14 05:36:21;;;;;;;0.10;0.10;;;10.30;99.90;;;;;;6248505;22;20016;-86
2022/10/14 05:38:47;;;;;;;0.73;0.30;;;10.30;99.90;;;;;;6223108;22;20020;-86
2022/10/14 05:41:13;;;;;;;2.40;0.67;;;10.40;99.90;;;;;;6223086;22;20015;-86
2022/10/14 05:43:38;;;;;;;0.93;0.77;;;10.40;99.90;;;;;;6248785;22;20258;-85
2022/10/14 05:46:04;;;;;;;1.40;0.20;;;10.30;99.90;;;;;;6248556;22;20016;-86
2022/10/14 05:48:31;;;;;;;0.10;0.10;;;10.40;99.90;;;;;;6248754;22;20511;-86
2022/10/14 05:51:00;;;;;;;0.22;0.10;;;10.30;99.90;;;;;;6248405;22;20026;-86
2022/10/14 05:53:25;;;;;;;1.30;0.93;;;10.30;99.90;;;;;;6248975;22;20078;-86
2022/10/14 05:55:51;;;;;;;2.77;0.80;;;10.40;99.90;;;;;;6247943;22;20020;-86
2022/10/14 05:58:17;;;;;;;1.40;0.20;;;10.30;99.90;;;;;;6248658;22;20094;-85
2022/10/14 06:00:43;;;;;;;0.50;0.50;;;10.30;99.90;;;;;;6249153;22;20015;-88
2022/10/14 06:03:11;;;;;;;0.10;0.10;;;10.30;99.90;;;;;;6250919;22;20012;-86
2022/10/14 06:05:37;;;;;;;0.10;0.10;;;10.30;99.90;;;;;;6250736;22;20015;-86
2022/10/14 06:08:03;;;;;;;0.50;0.30;;;10.40;99.90;;;;;;6250199;22;20011;-86
2022/10/14 06:10:29;;;;;;;0.98;0.80;;;10.30;99.90;;;;;;6250996;22;20031;-86
2022/10/14 06:12:55;;;;;;;1.60;0.60;;;10.40;99.90;;;;;;6224853;22;20448;-86
2022/10/14 06:15:21;;;;;;;2.42;0.35;;;10.30;99.90;;;;;;6251025;22;20216;-86
2022/10/14 06:17:47;;;;;;;0.30;0.30;;;10.30;99.90;;;;;;6223666;22;20050;-86
2022/10/14 06:20:12;;;;;;;0.63;0.37;;;10.30;99.90;;;;;;6250522;22;20016;-86
2022/10/14 06:22:38;;;;;;;1.63;0.67;;;10.30;99.90;;;;;;6225020;22;20023;-86
2022/10/14 06:25:05;;;;;;;0.37;0.27;;;10.40;99.90;;;;;;6224408;22;20353;-86
2022/10/14 06:27:30;;;;;;;1.27;0.13;;;10.40;99.90;;;;;;6250751;22;20016;-86
2022/10/14 06:29:56;;;;;;;0.87;0.27;;;10.40;99.90;;;;;;6250140;22;20059;-85
2022/10/14 06:32:22;;;;;;;0.20;0.20;;;10.30;99.90;;;;;;6250621;22;20018;-85
2022/10/14 06:34:47;;;;;;;1.60;0.30;;;10.40;99.90;;;;;;6249898;22;20020;-87
2022/10/14 06:37:13;;;;;;;1.03;0.80;;;10.40;99.90;;;;;;6224690;22;20121;-85
2022/10/14 06:39:40;;;;;;;0.97;0.57;;;10.40;99.90;;;;;;6225110;22;20011;-85
2022/10/14 06:42:06;;;;;;;1.08;0.35;;;10.40;99.90;;;;;;6249754;22;20020;-86
2022/10/14 06:44:32;;;;;;;0.90;0.50;;;10.40;99.90;;;;;;6225092;22;20065;-85
2022/10/14 06:46:57;;;;;;;1.00;0.20;;;10.40;99.90;;;;;;6224711;22;20107;-86
2022/10/14 06:49:23;;;;;;;0.67;0.40;;;10.50;99.90;;;;;;6250513;22;20023;-86
2022/10/14 06:51:48;;;;;;;2.23;0.60;;;10.50;99.90;;;;;;6250150;22;20514;-85
2022/10/14 06:54:15;;;;;;;0.70;0.30;;;10.50;99.90;;;;;;6249729;22;20102;-85
2022/10/14 06:56:41;;;;;;;0.13;0.13;;;10.50;99.90;;;;;;6249871;22;20019;-85
2022/10/14 06:59:07;;;;;;;0.57;0.40;;;10.50;99.90;;;;;;6249707;22;20322;-86
2022/10/14 07:01:32;;;;;;;2.00;0.40;;;10.60;99.90;;;;;;6250335;22;20077;-85
2022/10/14 07:03:58;;;;;;;1.23;0.40;;;10.60;99.90;;;;;;6249238;22;20495;-86
2022/10/14 07:06:24;;;;;;;0.17;0.17;;;10.60;99.90;;;;;;6250157;22;20012;-85
2022/10/14 07:08:49;;;;;;;0.90;0.60;;;10.60;99.90;;;;;;6224559;22;20055;-85
2022/10/14 07:11:15;;;;;;;0.90;0.60;;;10.60;99.90;;;;;;6223668;22;20218;-86
2022/10/14 07:13:41;;;;;;;1.20;0.40;;;10.70;99.90;;;;;;6223856;22;20024;-85
2022/10/14 07:16:07;;;;;;;0.30;0.30;;;10.60;99.90;;;;;;6249593;22;20045;-85
2022/10/14 07:18:32;;;;;;;1.23;0.87;;;10.60;99.90;;;;;;6224303;22;20082;-85
2022/10/14 07:21:03;;;;;;;0.40;0.20;;;10.60;99.90;;;;;;6249307;22;20016;-85
2022/10/14 07:23:29;;;;;;;2.28;0.90;;;10.60;99.90;;;;;;6249817;22;20012;-85
2022/10/14 07:25:56;;;;;;;1.17;0.70;;;10.70;99.90;;;;;;6249232;22;20424;-86
2022/10/14 07:28:22;;;;;;;0.75;0.45;;;10.70;99.90;;;;;;6249956;22;20340;-85
2022/10/14 07:30:59;;;;;;;2.63;1.42;;;10.70;99.90;;;;;;6249949;22;20090;-85
2022/10/14 07:33:25;;;;;;;1.20;0.80;;;10.70;99.90;;;;;;6250007;22;20138;-85
2022/10/14 07:35:51;;;;;;;0.73;0.47;;;10.70;99.90;;;;;;6199601;22;20436;-85
2022/10/14 07:38:18;;;;;;;1.25;0.45;;;10.70;99.90;;;;;;6247918;22;20073;-86
2022/10/14 07:40:43;;;;;;;0.50;0.40;;;10.70;99.90;;;;;;6249854;22;20024;-86
2022/10/14 07:43:09;;;;;;;2.80;0.73;;;10.70;99.90;;;;;;6198651;22;20344;-86
2022/10/14 07:45:39;;;;;;;0.60;0.57;;;10.70;99.90;;;;;;6224762;22;20015;-86
2022/10/14 07:48:05;;;;;;;2.58;0.60;;;10.70;99.90;;;;;;6224135;22;20026;-85
2022/10/14 07:50:31;;;;;;;0.77;0.30;;;10.70;99.90;;;;;;6224567;22;20020;-85
2022/10/14 07:52:56;;;;;;;1.17;0.30;;;10.70;99.90;;;;;;6249685;22;20069;-85
2022/10/14 07:55:22;;;;;;;0.67;0.43;;;10.80;99.90;;;;;;6198878;22;20069;-85
2022/10/14 07:57:48;;;;;;;0.63;0.63;;;10.80;99.90;;;;;;6224102;22;20015;-85
2022/10/14 08:00:13;;;;;;;0.57;0.40;;;10.80;99.90;;;;;;6223556;22;20390;-85
2022/10/14 08:02:39;;;;;;;0.28;0.28;;;10.80;99.90;;;;;;6249640;22;20011;-85
2022/10/14 08:05:05;;;;;;;1.20;0.63;;;10.80;99.90;;;;;;6249080;22;20440;-86
2022/10/14 08:07:32;;;;;;;0.80;0.47;;;10.90;99.90;;;;;;6199607;22;20073;-85
2022/10/14 08:09:57;;;;;;;0.70;0.30;;;10.90;99.90;;;;;;6224349;22;20098;-85
2022/10/14 08:12:26;;;;;;;1.00;0.20;;;11.20;99.90;;;;;;6249161;22;20054;-86
2022/10/14 08:14:56;;;;;;;1.10;0.50;;;11.00;99.90;;;;;;6199551;22;20098;-86
2022/10/14 08:17:21;;;;;;;2.10;0.63;;;11.00;99.90;;;;;;6248967;22;20055;-86
2022/10/14 08:19:49;;;;;;;0.77;0.40;;;11.10;99.90;;;;;;6224160;22;20338;-85
2022/10/14 08:22:15;;;;;;;0.30;0.30;;;11.20;99.90;;;;;;6223654;22;20023;-86
2022/10/14 08:24:40;;;;;;;0.77;0.30;;;11.20;99.90;;;;;;6173702;22;20016;-86
2022/10/14 08:27:06;;;;;;;2.03;0.73;;;11.20;99.90;;;;;;6223754;22;20099;-86
2022/10/14 08:29:32;;;;;;;0.43;0.43;;;11.30;99.90;;;;;;6199501;22;20094;-86
2022/10/14 08:31:58;;;;;;;1.05;0.45;;;11.30;99.90;;;;;;6223996;22;20047;-85
2022/10/14 08:34:24;;;;;;;0.10;0.10;;;11.30;99.90;;;;;;6198210;22;20141;-85
2022/10/14 08:36:50;;;;;;;1.03;0.33;;;11.30;99.90;;;;;;6244026;23;20020;-85
2022/10/14 08:39:20;;;;;;;1.55;0.57;;;11.30;99.90;;;;;;6193523;23;20024;-86
2022/10/14 08:42:04;;;;;;;0.88;0.40;;;11.30;99.90;;;;;;6193953;23;20016;-86
2022/10/14 08:45:09;;;;;;;1.88;0.68;;;11.30;99.90;;;;;;6193880;23;20107;-86
2022/10/14 08:47:44;;;;;;;0.38;0.38;;;11.40;99.90;;;;;;6193678;23;20020;-86
2022/10/14 08:50:38;;;;;;;1.05;0.43;;;11.40;99.90;;;;;;6217933;23;20041;-86
2022/10/14 08:53:17;;;;;;;0.70;0.40;;;11.40;99.90;;;;;;6218381;23;20020;-85
2022/10/14 08:55:46;;;;;;;2.72;1.20;;;11.40;99.90;;;;;;6192886;23;20016;-85
2022/10/14 08:58:21;;;;;;;0.88;0.85;;;11.40;99.90;;;;;;6218061;23;20027;-86
2022/10/14 09:00:50;;;;;;;0.63;0.38;;;11.50;99.90;;;;;;6219009;23;20016;-85
2022/10/14 09:03:35;;;;;;;0.20;0.10;;;11.50;99.90;;;;;;6217697;23;20063;-86
2022/10/14 09:06:23;;;;;;;0.43;0.32;;;11.60;99.90;;;;;;6218640;23;20048;-85
2022/10/14 09:08:51;;;;;;;1.50;0.63;;;11.60;99.90;;;;;;6218097;23;20016;-85
2022/10/14 09:11:19;;;;;;;1.42;0.55;;;11.60;99.90;;;;;;6193548;23;20024;-86
2022/10/14 09:13:49;;;;;;;2.58;1.20;;;11.60;99.90;;;;;;6193348;23;20370;-86
2022/10/14 09:16:28;;;;;;;1.85;0.70;;;11.60;99.90;;;;;;6218018;23;20059;-86
2022/10/14 09:18:58;;;;;;;2.10;0.90;;;11.60;99.90;;;;;;6218411;23;20515;-86
2022/10/14 09:21:26;;;;;;;0.52;0.52;;;11.60;99.90;;;;;;6192722;23;20027;-86
2022/10/14 09:24:12;;;;;;;0.85;0.30;;;11.60;99.90;;;;;;6218465;23;20091;-85
2022/10/14 09:26:40;;;;;;;0.40;0.32;;;11.60;99.90;;;;;;6177962;23;20020;-86
2022/10/14 09:29:28;;;;;;;2.13;0.45;;;11.60;99.90;;;;;;6218223;23;20059;-85
2022/10/14 09:32:01;;;;;;;0.90;0.88;;;11.70;99.90;;;;;;6218954;23;20023;-86
2022/10/14 09:34:38;;;;;;;1.17;0.45;;;11.70;99.90;;;;;;6217818;23;20031;-86
2022/10/14 09:37:14;;;;;;;1.05;0.95;;;11.70;99.90;;;;;;6220357;23;20515;-85
2022/10/14 09:39:40;;;;;;;2.03;0.57;;;11.70;99.90;;;;;;6220755;23;20070;-85
2022/10/14 09:42:16;;;;;;;0.63;0.20;;;11.80;99.90;;;;;;6195660;23;20016;-85
2022/10/14 09:44:42;;;;;;;0.70;0.55;;;11.80;99.90;;;;;;6220557;23;20019;-85
2022/10/14 09:47:13;;;;;;;2.60;0.80;;;11.80;99.90;;;;;;6220558;23;20012;-85
2022/10/14 09:49:44;;;;;;;1.17;0.82;;;11.80;99.90;;;;;;6195550;23;20023;-86
2022/10/14 09:52:23;;;;;;;1.55;1.00;;;11.80;99.90;;;;;;6195500;23;20023;-86
2022/10/14 09:54:59;;;;;;;0.75;0.52;;;11.90;99.90;;;;;;6220527;23;20147;-86
2022/10/14 09:57:26;;;;;;;2.22;0.60;;;11.90;99.90;;;;;;6219732;23;20376;-86
2022/10/14 10:00:02;;;;;;;;;;;11.90;99.90;;;;;;6195712;23;20100;-86
2022/10/14 10:02:40;;;;;;;0.85;0.30;;;11.90;99.90;;;;;;6194828;23;19937;-86
2022/10/14 10:05:36;;;;;;;0.50;0.30;;;11.90;99.90;;;;;;6195399;23;20020;-85
2022/10/14 10:08:12;;;;;;;0.85;0.63;;;11.90;99.90;;;;;;6195168;23;20467;-85
2022/10/14 10:10:39;;;;;;;0.73;0.40;;;11.90;99.90;;;;;;6194767;23;20075;-85
2022/10/14 10:13:30;;;;;;;2.30;0.98;;;11.90;99.90;;;;;;6220296;23;20091;-86
2022/10/14 10:16:02;;;;;;;0.65;0.38;;;11.90;99.90;;;;;;6247311;23;20023;-86
2022/10/14 10:18:28;;;;;;;0.77;0.30;;;11.90;99.90;;;;;;6219824;23;20012;-86
2022/10/14 10:21:28;;;;;;;0.83;0.43;;;11.90;99.90;;;;;;6220321;23;20023;-86
2022/10/14 10:24:02;;;;;;;1.02;0.50;;;11.90;99.90;;;;;;6220436;23;20051;-86
2022/10/14 10:26:33;;;;;;;0.20;0.20;;;11.90;99.90;;;;;;6221616;23;20020;-86
2022/10/14 10:29:04;;;;;;;1.20;0.73;;;11.90;99.90;;;;;;6225044;23;20020;-86
2022/10/14 10:31:33;;;;;;;0.35;0.20;;;11.90;99.90;;;;;;6249761;23;20018;-87
2022/10/14 10:34:29;;;;;;;1.45;0.90;;;11.90;99.90;;;;;;6220056;23;20043;-87
2022/10/14 10:37:11;;;;;;;1.45;0.50;;;11.90;99.90;;;;;;6219607;23;20023;-87
2022/10/14 10:39:43;;;;;;;1.85;0.50;;;11.90;99.90;;;;;;6219740;23;20024;-87
2022/10/14 10:42:17;;;;;;;0.77;0.40;;;12.00;99.90;;;;;;6194985;23;20016;-87
2022/10/14 10:45:15;;;;;;;1.92;0.40;;;12.00;99.90;;;;;;6219474;23;20323;-87
2022/10/14 10:47:49;;;;;;;1.85;0.88;;;12.00;99.90;;;;;;6187447;23;20016;-87
2022/10/14 10:50:36;;;;;;;1.58;0.82;;;12.00;99.90;;;;;;6194951;23;20020;-87
2022/10/14 10:53:36;;;;;;;1.15;0.40;;;12.00;99.90;;;;;;6194615;23;20399;-87
2022/10/14 10:56:12;;;;;;;0.55;0.50;;;12.00;99.90;;;;;;6219967;23;20020;-87
2022/10/14 10:58:40;;;;;;;1.88;0.63;;;12.00;99.90;;;;;;6219407;23;20055;-87
2022/10/14 11:01:41;;;;;;;1.92;0.85;;;12.00;99.90;;;;;;6194756;23;20068;-87
2022/10/14 11:04:20;;;;;;;1.17;0.70;;;12.00;99.90;;;;;;6246510;23;20020;-87
2022/10/14 11:13:06;;;;;;;0.52;0.52;;;12.10;99.90;;;;;;6219269;23;20470;-87
2022/10/14 11:15:38;;;;;;;0.68;0.40;;;12.10;99.90;;;;;;6246034;23;20015;-87
2022/10/14 11:18:13;;;;;;;0.32;0.32;;;12.10;99.90;;;;;;6219696;23;20395;-87
2022/10/14 11:20:50;;;;;;;0.40;0.28;;;12.10;99.90;;;;;;6219180;23;20024;-88
2022/10/14 11:23:34;;;;;;;1.70;0.63;;;12.20;99.90;;;;;;6219914;23;20414;-87
2022/10/14 11:26:29;;;;;;;2.63;0.82;;;12.10;99.90;;;;;;6194600;23;20022;-88
2022/10/14 11:29:26;;;;;;;0.85;0.30;;;12.20;99.90;;;;;;6193465;23;20055;-88
2022/10/14 11:32:22;;;;;;;0.47;0.32;;;12.20;99.90;;;;;;6194594;23;20115;-88
2022/10/14 11:34:54;;;;;;;0.32;0.20;;;12.30;99.90;;;;;;6219104;23;20020;-88
2022/10/14 11:37:35;;;;;;;0.40;0.40;;;12.30;99.90;;;;;;6221156;23;20074;-89
2022/10/14 11:40:23;;;;;;;1.77;0.70;;;12.30;99.90;;;;;;6274827;22;20020;-88
2022/10/14 11:43:01;;;;;;;0.20;0.20;;;12.30;99.90;;;;;;6249331;22;20463;-88
2022/10/14 11:45:36;;;;;;;0.30;0.30;;;12.40;99.90;;;;;;6224073;22;20023;-88
2022/10/14 11:48:23;;;;;;;1.85;0.70;;;12.40;99.90;;;;;;6249338;22;20100;-88
2022/10/14 11:50:55;;;;;;;0.30;0.30;;;12.40;99.90;;;;;;6223946;22;20103;-88
2022/10/14 11:53:34;;;;;;;1.05;0.50;;;12.40;99.90;;;;;;6276722;22;20062;-88
2022/10/14 11:56:28;;;;;;;0.40;0.20;;;12.50;99.90;;;;;;6249753;22;20444;-88
2022/10/14 11:58:59;;;;;;;0.98;0.60;;;12.50;99.90;;;;;;6223786;22;20016;-88
2022/10/14 12:01:29;;;;;;;0.35;0.20;;;12.60;99.90;;;;;;6249779;22;20020;-88
2022/10/14 12:04:13;;;;;;;0.50;0.50;;;12.60;99.90;;;;;;6249204;22;20020;-88
2022/10/14 12:06:51;;;;;;;0.70;0.25;;;12.60;99.90;;;;;;6249082;22;20016;-88
2022/10/14 12:09:47;;;;;;;0.40;0.40;;;12.60;99.90;;;;;;6276597;22;20444;-88
2022/10/14 12:12:17;;;;;;;0.77;0.40;;;12.70;99.90;;;;;;6222322;22;20023;-87
2022/10/14 12:14:55;;;;;;;1.65;0.68;;;12.70;99.90;;;;;;6276008;22;20016;-87
2022/10/14 12:17:34;;;;;;;0.95;0.45;;;12.70;99.90;;;;;;6249503;22;20051;-87
2022/10/14 12:20:15;;;;;;;1.02;0.57;;;12.70;99.90;;;;;;6249835;22;20023;-87
2022/10/14 12:22:44;;;;;;;1.63;1.08;;;12.70;99.90;;;;;;6223576;22;20019;-87
2022/10/14 12:25:16;;;;;;;1.45;0.40;;;12.70;99.90;;;;;;6276784;22;20071;-88
2022/10/14 12:27:42;;;;;;;1.95;0.55;;;12.70;99.90;;;;;;6223759;22;20062;-87
2022/10/14 12:30:39;;;;;;;0.60;0.50;;;12.80;99.90;;;;;;6223744;22;20340;-87
2022/10/14 12:33:11;;;;;;;0.98;0.50;;;12.80;99.90;;;;;;6249781;22;20030;-88
2022/10/14 12:35:51;;;;;;;1.08;0.55;;;12.80;99.90;;;;;;6248518;22;20023;-87
2022/10/14 12:38:18;;;;;;;0.40;0.38;;;12.90;99.90;;;;;;6248636;22;20020;-87
2022/10/14 12:40:43;;;;;;;0.55;0.47;;;12.90;99.90;;;;;;6275899;22;20015;-87
2022/10/14 12:43:23;;;;;;;2.00;0.90;;;12.90;99.90;;;;;;6248883;22;20475;-87
2022/10/14 12:46:00;;;;;;;1.70;0.80;;;13.00;99.90;;;;;;6223161;22;20015;-87
2022/10/14 12:48:28;;;;;;;;;;;13.00;99.90;;;;;;6249702;22;20016;-87
2022/10/14 12:51:21;;;;;;;1.30;0.40;;;13.00;99.90;;;;;;6275674;22;19998;-88
2022/10/14 12:54:25;;;;;;;4.38;0.63;;;13.00;99.90;;;;;;6275956;22;20019;-88
2022/10/14 12:56:59;;;;;;;1.88;0.77;;;13.00;99.90;;;;;;6235093;22;20023;-87
2022/10/14 12:59:37;;;;;;;2.58;0.95;;;13.10;99.90;;;;;;6275945;22;20479;-88
2022/10/14 13:02:13;;;;;;;1.75;0.55;;;13.10;99.90;;;;;;6248514;22;20015;-88
2022/10/14 13:04:50;;;;;;;1.75;0.93;;;13.10;99.90;;;;;;6249035;22;20051;-87
2022/10/14 13:07:16;;;;;;;2.20;0.80;;;13.10;99.90;;;;;;6276335;22;20447;-87
2022/10/14 13:09:44;;;;;;;0.50;0.50;;;13.10;99.90;;;;;;6247987;22;20015;-87
2022/10/14 13:12:35;;;;;;;1.23;0.38;;;13.20;99.90;;;;;;6249166;22;20020;-87
2022/10/14 13:15:23;;;;;;;1.95;0.70;;;13.20;99.90;;;;;;6248031;22;20027;-87